createdAt,value
2018-10-01T00:00:56.228Z,10.03
2018-10-01T00:03:31.782Z,8.65
2018-10-01T00:06:07.416Z,9.63
2018-10-01T00:08:42.825Z,8.75
2018-10-01T00:11:18.222Z,8.48
2018-10-01T00:13:53.662Z,8.90
2018-10-01T00:16:28.955Z,10.18
2018-10-01T00:19:08.803Z,8.43
2018-10-01T00:21:49.576Z,9.85
2018-10-01T00:24:25.244Z,9.60
2018-10-01T00:27:00.761Z,10.30
2018-10-01T00:29:36.337Z,9.45
2018-10-01T00:32:11.869Z,8.68
2018-10-01T00:34:47.469Z,10.10
2018-10-01T00:37:22.761Z,9.73
2018-10-01T00:39:58.277Z,10.03
2018-10-01T00:42:33.832Z,8.90
2018-10-01T00:45:09.866Z,9.68
2018-10-01T00:47:45.441Z,9.58
2018-10-01T00:50:21.053Z,9.03
2018-10-01T00:52:56.607Z,8.98
2018-10-01T00:55:32.266Z,9.48
2018-10-01T00:58:07.673Z,10.18
2018-10-01T01:00:43.183Z,10.63
2018-10-01T01:03:18.744Z,8.68
2018-10-01T01:05:54.410Z,7.67
2018-10-01T01:08:29.950Z,8.90
2018-10-01T01:11:05.477Z,7.47
2018-10-01T01:13:40.790Z,7.65
2018-10-01T01:16:16.288Z,8.53
2018-10-01T01:18:51.773Z,7.75
2018-10-01T01:21:27.302Z,8.70
2018-10-01T01:24:02.818Z,7.62
2018-10-01T01:26:38.409Z,8.00
2018-10-01T01:29:13.797Z,8.65
2018-10-01T01:31:49.579Z,7.50
2018-10-01T01:34:25.116Z,8.10
2018-10-01T01:37:00.763Z,8.10
2018-10-01T01:39:36.261Z,8.25
2018-10-01T01:42:11.786Z,7.97
2018-10-01T01:44:47.139Z,7.85
2018-10-01T01:47:22.536Z,7.90
2018-10-01T01:49:58.016Z,7.90
2018-10-01T01:52:33.899Z,8.60
2018-10-01T01:55:09.157Z,8.58
2018-10-01T01:57:44.657Z,9.40
2018-10-01T02:00:20.265Z,9.18
2018-10-01T02:02:55.847Z,8.83
2018-10-01T02:05:31.241Z,9.88
2018-10-01T02:08:06.937Z,9.93
2018-10-01T02:10:44.864Z,10.80
2018-10-01T02:13:20.489Z,10.78
2018-10-01T02:15:55.875Z,11.30
2018-10-01T02:18:31.423Z,10.48
2018-10-01T02:21:06.936Z,10.78
2018-10-01T02:23:42.553Z,10.28
2018-10-01T02:26:18.089Z,9.68
2018-10-01T02:28:53.740Z,10.15
2018-10-01T02:31:29.214Z,8.80
2018-10-01T02:34:04.929Z,10.00
2018-10-01T02:36:40.290Z,9.38
2018-10-01T02:39:15.914Z,8.70
2018-10-01T02:41:51.408Z,8.23
2018-10-01T02:44:27.009Z,7.47
2018-10-01T02:47:02.377Z,7.10
2018-10-01T02:49:37.838Z,7.28
2018-10-01T02:52:18.614Z,7.22
2018-10-01T02:54:54.150Z,5.75
2018-10-01T02:57:29.533Z,5.90
2018-10-01T03:00:06.356Z,5.00
2018-10-01T03:02:41.818Z,5.05
2018-10-01T03:05:17.196Z,4.80
2018-10-01T03:07:52.813Z,4.45
2018-10-01T03:10:28.279Z,3.83
2018-10-01T03:13:03.701Z,3.65
2018-10-01T03:15:39.170Z,3.50
2018-10-01T03:18:14.654Z,3.40
2018-10-01T03:20:50.154Z,3.42
2018-10-01T03:23:25.552Z,3.50
2018-10-01T03:26:01.620Z,2.47
2018-10-01T03:28:37.080Z,2.90
2018-10-01T03:31:12.704Z,2.80
2018-10-01T03:33:47.914Z,2.40
2018-10-01T03:36:23.578Z,2.52
2018-10-01T03:38:59.086Z,2.50
2018-10-01T03:41:34.563Z,1.60
2018-10-01T03:44:10.834Z,2.00
2018-10-01T03:46:46.251Z,2.25
2018-10-01T03:49:21.814Z,2.05
2018-10-01T03:51:57.634Z,1.80
2018-10-01T03:54:33.171Z,1.60
2018-10-01T03:57:09.462Z,2.22
2018-10-01T03:59:45.036Z,2.08
2018-10-01T04:02:20.599Z,1.80
2018-10-01T04:04:56.289Z,1.60
2018-10-01T04:07:31.848Z,2.15
2018-10-01T04:10:07.168Z,1.87
2018-10-01T04:12:42.584Z,1.80
2018-10-01T04:15:18.019Z,1.67
2018-10-01T04:17:53.485Z,1.90
2018-10-01T04:20:28.991Z,1.55
2018-10-01T04:23:04.416Z,1.80
2018-10-01T04:25:39.686Z,1.98
2018-10-01T04:28:15.376Z,1.90
2018-10-01T04:30:50.702Z,1.60
2018-10-01T04:33:26.322Z,2.17
2018-10-01T04:36:01.870Z,1.70
2018-10-01T04:38:37.449Z,1.75
2018-10-01T04:41:12.845Z,1.90
2018-10-01T04:43:48.347Z,2.00
2018-10-01T04:46:23.730Z,1.72
2018-10-01T04:48:59.345Z,2.10
2018-10-01T04:51:34.742Z,1.87
2018-10-01T04:54:10.231Z,1.90
2018-10-01T04:56:45.772Z,2.12
2018-10-01T04:59:22.261Z,2.20
2018-10-01T05:01:57.715Z,2.47
2018-10-01T05:04:33.467Z,3.60
2018-10-01T05:07:08.806Z,3.75
2018-10-01T05:09:44.285Z,4.33
2018-10-01T05:12:19.793Z,5.47
2018-10-01T05:14:56.597Z,5.83
2018-10-01T05:17:31.945Z,5.55
2018-10-01T05:20:07.753Z,7.30
2018-10-01T05:22:43.180Z,9.70
2018-10-01T05:25:18.716Z,9.60
2018-10-01T05:27:54.291Z,10.13
2018-10-01T05:30:29.901Z,9.78
2018-10-01T05:33:05.253Z,9.98
2018-10-01T05:35:40.931Z,10.03
2018-10-01T05:38:16.808Z,10.25
2018-10-01T05:40:52.548Z,9.75
2018-10-01T05:43:28.080Z,9.60
2018-10-01T05:46:03.751Z,9.55
2018-10-01T05:48:39.024Z,9.08
2018-10-01T05:51:14.601Z,9.33
2018-10-01T05:53:50.150Z,9.08
2018-10-01T05:56:25.945Z,7.78
2018-10-01T05:59:01.758Z,7.55
2018-10-01T06:01:37.518Z,7.15
2018-10-01T06:04:13.109Z,7.40
2018-10-01T06:06:48.846Z,8.28
2018-10-01T06:09:24.240Z,6.75
2018-10-01T06:11:59.920Z,6.65
2018-10-01T06:14:35.569Z,5.78
2018-10-01T06:17:11.615Z,5.72
2018-10-01T06:19:47.113Z,9.20
2018-10-01T06:22:22.747Z,5.30
2018-10-01T06:24:58.295Z,5.35
2018-10-01T06:27:33.782Z,11.20
2018-10-01T06:30:09.221Z,6.95
2018-10-01T06:32:45.128Z,6.03
2018-10-01T06:35:20.497Z,5.50
2018-10-01T06:37:55.909Z,4.72
2018-10-01T06:40:31.366Z,5.00
2018-10-01T06:43:07.311Z,3.65
2018-10-01T06:45:42.734Z,4.08
2018-10-01T06:48:18.341Z,4.58
2018-10-01T06:50:53.787Z,6.28
2018-10-01T06:53:29.611Z,5.33
2018-10-01T06:56:05.091Z,2.52
2018-10-01T06:58:40.736Z,3.22
2018-10-01T07:01:16.422Z,4.10
2018-10-01T07:03:51.993Z,2.85
2018-10-01T07:06:28.642Z,4.22
2018-10-01T07:09:04.783Z,3.10
2018-10-01T07:11:40.658Z,4.87
2018-10-01T07:14:15.969Z,2.30
2018-10-01T07:16:51.282Z,3.90
2018-10-01T07:19:26.749Z,6.78
2018-10-01T07:22:02.064Z,2.50
2018-10-01T07:24:37.646Z,3.02
2018-10-01T07:27:13.148Z,3.00
2018-10-01T07:29:48.780Z,3.50
2018-10-01T07:32:24.304Z,3.27
2018-10-01T07:34:59.890Z,2.95
2018-10-01T07:37:35.354Z,3.05
2018-10-01T07:40:11.013Z,3.08
2018-10-01T07:42:46.473Z,2.50
2018-10-01T07:45:22.044Z,2.08
2018-10-01T07:47:57.150Z,2.30
2018-10-01T07:50:32.622Z,3.30
2018-10-01T07:53:08.074Z,2.10
2018-10-01T07:55:43.533Z,2.27
2018-10-01T07:58:18.973Z,2.02
2018-10-01T08:00:54.766Z,2.77
2018-10-01T08:03:30.042Z,1.40
2018-10-01T08:06:05.462Z,1.82
2018-10-01T08:08:40.969Z,1.80
2018-10-01T08:11:16.569Z,1.70
2018-10-01T08:13:51.795Z,1.52
2018-10-01T08:16:27.243Z,1.67
2018-10-01T08:19:02.705Z,1.77
2018-10-01T08:21:38.206Z,1.40
2018-10-01T08:24:13.572Z,1.95
2018-10-01T08:26:48.949Z,1.75
2018-10-01T08:29:24.478Z,1.57
2018-10-01T08:32:00.019Z,1.87
2018-10-01T08:34:35.734Z,2.10
2018-10-01T08:37:11.269Z,1.80
2018-10-01T08:39:46.478Z,2.20
2018-10-01T08:42:21.942Z,2.02
2018-10-01T08:44:57.400Z,1.98
2018-10-01T08:47:32.826Z,1.80
2018-10-01T08:51:17.360Z,1.52
2018-10-01T08:53:58.531Z,1.85
2018-10-01T08:56:34.073Z,1.40
2018-10-01T08:59:09.962Z,1.75
2018-10-01T09:01:45.432Z,1.22
2018-10-01T09:04:20.870Z,1.87
2018-10-01T09:06:56.355Z,1.75
2018-10-01T09:09:31.729Z,2.00
2018-10-01T09:12:07.197Z,1.82
2018-10-01T09:14:42.812Z,1.92
2018-10-01T09:17:18.158Z,1.70
2018-10-01T09:19:53.787Z,2.70
2018-10-01T09:22:29.309Z,1.90
2018-10-01T09:25:04.865Z,2.27
2018-10-01T09:27:40.523Z,2.50
2018-10-01T09:30:16.177Z,2.30
2018-10-01T09:32:51.675Z,2.70
2018-10-01T09:35:27.294Z,2.40
2018-10-01T09:38:02.733Z,1.90
2018-10-01T09:40:38.548Z,1.42
2018-10-01T09:43:13.866Z,1.50
2018-10-01T09:45:49.891Z,1.80
2018-10-01T09:48:25.378Z,1.95
2018-10-01T09:51:01.147Z,2.10
2018-10-01T09:53:36.702Z,2.60
2018-10-01T09:56:12.374Z,3.10
2018-10-01T09:58:47.706Z,2.17
2018-10-01T10:01:23.409Z,2.70
2018-10-01T10:03:58.836Z,3.52
2018-10-01T10:06:34.583Z,3.55
2018-10-01T10:09:11.398Z,2.30
2018-10-01T10:11:46.869Z,2.00
2018-10-01T10:14:22.403Z,2.20
2018-10-01T10:16:58.085Z,2.15
2018-10-01T10:19:33.497Z,2.15
2018-10-01T10:22:09.114Z,1.40
2018-10-01T10:24:44.614Z,1.50
2018-10-01T10:27:20.599Z,1.62
2018-10-01T10:29:55.963Z,2.15
2018-10-01T10:32:31.488Z,1.52
2018-10-01T10:35:07.152Z,1.45
2018-10-01T10:37:42.802Z,3.55
2018-10-01T10:40:18.065Z,2.33
2018-10-01T10:42:53.750Z,2.40
2018-10-01T10:45:29.038Z,2.30
2018-10-01T10:48:04.787Z,2.42
2018-10-01T10:50:40.286Z,1.35
2018-10-01T10:53:15.890Z,1.50
2018-10-01T10:55:51.542Z,1.10
2018-10-01T10:58:27.239Z,1.00
2018-10-01T11:01:02.833Z,1.40
2018-10-01T11:03:38.694Z,1.40
2018-10-01T11:06:14.145Z,1.30
2018-10-01T11:08:50.299Z,1.45
2018-10-01T11:11:25.978Z,1.75
2018-10-01T11:14:01.742Z,2.30
2018-10-01T11:16:37.284Z,1.70
2018-10-01T11:19:13.433Z,2.10
2018-10-01T11:21:48.619Z,1.55
2018-10-01T11:24:24.283Z,1.70
2018-10-01T11:27:00.049Z,2.45
2018-10-01T11:29:35.578Z,1.07
2018-10-01T11:32:11.224Z,1.75
2018-10-01T11:34:46.859Z,1.30
2018-10-01T11:37:22.772Z,1.35
2018-10-01T11:39:58.326Z,1.50
2018-10-01T11:42:33.915Z,1.30
2018-10-01T11:45:09.890Z,1.30
2018-10-01T11:47:45.237Z,1.30
2018-10-01T11:50:20.953Z,1.75
2018-10-01T11:52:56.533Z,1.10
2018-10-01T11:55:32.120Z,1.52
2018-10-01T11:58:07.581Z,1.20
2018-10-01T12:00:43.390Z,1.35
2018-10-01T12:03:18.827Z,2.12
2018-10-01T12:05:54.407Z,2.10
2018-10-01T12:08:29.770Z,1.45
2018-10-01T12:11:05.246Z,1.55
2018-10-01T12:13:40.773Z,2.77
2018-10-01T12:16:16.442Z,1.22
2018-10-01T12:18:51.910Z,2.10
2018-10-01T12:21:27.667Z,1.92
2018-10-01T12:24:03.157Z,2.15
2018-10-01T12:26:38.759Z,2.60
2018-10-01T12:29:14.255Z,2.10
2018-10-01T12:31:49.714Z,2.40
2018-10-01T12:34:25.177Z,2.37
2018-10-01T12:37:00.820Z,2.00
2018-10-01T12:39:36.390Z,2.10
2018-10-01T12:42:12.126Z,2.60
2018-10-01T12:44:47.511Z,1.67
2018-10-01T12:47:22.957Z,1.95
2018-10-01T12:49:58.607Z,2.75
2018-10-01T12:52:34.158Z,2.30
2018-10-01T12:55:09.601Z,2.30
2018-10-01T12:57:45.149Z,3.00
2018-10-01T13:00:20.705Z,2.08
2018-10-01T13:02:56.580Z,1.95
2018-10-01T13:05:32.261Z,2.22
2018-10-01T13:08:07.963Z,2.33
2018-10-01T13:10:43.242Z,3.30
2018-10-01T13:13:18.751Z,2.83
2018-10-01T13:15:54.501Z,3.05
2018-10-01T13:18:30.329Z,2.40
2018-10-01T13:21:06.011Z,2.40
2018-10-01T13:23:41.429Z,2.40
2018-10-01T13:26:16.862Z,2.65
2018-10-01T13:28:52.387Z,2.77
2018-10-01T13:31:27.843Z,3.65
2018-10-01T13:34:03.539Z,3.40
2018-10-01T13:36:39.096Z,3.25
2018-10-01T13:39:14.530Z,3.55
2018-10-01T13:41:50.158Z,4.03
2018-10-01T13:44:25.809Z,4.37
2018-10-01T13:47:01.089Z,3.58
2018-10-01T13:49:36.743Z,2.55
2018-10-01T13:52:12.325Z,3.75
2018-10-01T13:54:48.067Z,2.85
2018-10-01T13:57:23.400Z,3.30
2018-10-01T13:59:58.882Z,3.92
2018-10-01T14:02:34.320Z,3.62
2018-10-01T14:05:09.754Z,3.10
2018-10-01T14:07:45.218Z,2.95
2018-10-01T14:10:20.687Z,2.98
2018-10-01T14:12:56.126Z,2.80
2018-10-01T14:15:31.833Z,1.80
2018-10-01T14:18:07.253Z,3.15
2018-10-01T14:20:43.068Z,1.60
2018-10-01T14:23:18.655Z,1.60
2018-10-01T14:25:54.504Z,2.35
2018-10-01T14:28:29.989Z,3.30
2018-10-01T14:31:05.641Z,3.17
2018-10-01T14:33:42.017Z,2.25
2018-10-01T14:36:17.505Z,2.15
2018-10-01T14:38:52.925Z,3.75
2018-10-01T14:41:28.549Z,1.30
2018-10-01T14:44:03.906Z,2.60
2018-10-01T14:46:39.554Z,1.90
2018-10-01T14:49:14.915Z,2.33
2018-10-01T14:51:50.445Z,3.10
2018-10-01T14:54:25.853Z,3.50
2018-10-01T14:57:01.551Z,2.17
2018-10-01T14:59:36.963Z,2.75
2018-10-01T15:02:12.705Z,2.80
2018-10-01T15:04:48.165Z,2.52
2018-10-01T15:07:23.572Z,2.42
2018-10-01T15:09:59.105Z,2.42
2018-10-01T15:12:34.828Z,2.70
2018-10-01T15:15:10.638Z,3.62
2018-10-01T15:17:46.353Z,4.20
2018-10-01T15:20:21.790Z,5.12
2018-10-01T15:22:57.860Z,5.90
2018-10-01T15:25:33.209Z,5.72
2018-10-01T15:28:08.977Z,4.90
2018-10-01T15:30:44.389Z,5.45
2018-10-01T15:33:19.936Z,3.80
2018-10-01T15:35:55.427Z,5.22
2018-10-01T15:38:31.094Z,3.75
2018-10-01T15:41:06.717Z,5.10
2018-10-01T15:43:42.910Z,3.40
2018-10-01T15:46:18.360Z,3.30
2018-10-01T15:48:53.997Z,4.95
2018-10-01T15:51:29.673Z,3.10
2018-10-01T15:54:05.442Z,4.80
2018-10-01T15:56:40.983Z,3.50
2018-10-01T15:59:16.754Z,3.10
2018-10-01T16:01:52.301Z,2.60
2018-10-01T16:04:27.906Z,2.70
2018-10-01T16:07:03.296Z,2.40
2018-10-01T16:09:38.862Z,1.95
2018-10-01T16:12:14.485Z,2.25
2018-10-01T16:14:50.088Z,2.40
2018-10-01T16:17:25.635Z,1.82
2018-10-01T16:20:01.253Z,2.00
2018-10-01T16:22:36.644Z,2.52
2018-10-01T16:25:12.205Z,2.08
2018-10-01T16:27:47.794Z,1.90
2018-10-01T16:30:23.357Z,2.05
2018-10-01T16:32:58.786Z,2.00
2018-10-01T16:35:34.402Z,1.40
2018-10-01T16:38:09.761Z,1.92
2018-10-01T16:40:45.232Z,1.80
2018-10-01T16:43:20.687Z,1.98
2018-10-01T16:45:56.377Z,1.80
2018-10-01T16:48:31.882Z,1.05
2018-10-01T16:51:07.650Z,1.42
2018-10-01T16:53:43.256Z,1.30
2018-10-01T16:56:18.867Z,1.20
2018-10-01T16:58:54.238Z,1.85
2018-10-01T17:01:29.992Z,1.10
2018-10-01T17:04:05.438Z,2.08
2018-10-01T17:06:40.976Z,1.77
2018-10-01T17:09:16.454Z,1.30
2018-10-01T17:11:51.861Z,1.95
2018-10-01T17:14:27.503Z,1.85
2018-10-01T17:17:02.961Z,2.52
2018-10-01T17:19:38.263Z,2.35
2018-10-01T17:22:13.929Z,2.17
2018-10-01T17:24:49.323Z,1.85
2018-10-01T17:27:24.836Z,1.67
2018-10-01T17:30:00.275Z,1.60
2018-10-01T17:32:35.921Z,2.55
2018-10-01T17:35:11.349Z,2.83
2018-10-01T17:37:47.673Z,3.45
2018-10-01T17:40:23.256Z,2.80
2018-10-01T17:42:59.001Z,2.05
2018-10-01T17:45:34.390Z,1.70
2018-10-01T17:48:10.147Z,2.42
2018-10-01T17:50:45.643Z,2.42
2018-10-01T17:53:21.395Z,5.10
2018-10-01T17:55:57.025Z,2.55
2018-10-01T17:58:32.464Z,2.00
2018-10-01T18:01:09.444Z,4.10
2018-10-01T18:06:24.417Z,3.87
2018-10-01T18:08:59.933Z,4.58
2018-10-01T18:11:35.868Z,2.37
2018-10-01T18:14:11.549Z,2.20
2018-10-01T18:16:47.088Z,2.75
2018-10-01T18:19:22.452Z,6.00
2018-10-01T18:21:58.266Z,2.80
2018-10-01T18:24:33.879Z,2.85
2018-10-01T18:27:09.562Z,4.17
2018-10-01T18:29:45.098Z,3.17
2018-10-01T18:32:20.891Z,6.45
2018-10-01T18:34:56.430Z,3.37
2018-10-01T18:37:32.012Z,3.15
2018-10-01T18:40:11.652Z,3.10
2018-10-01T18:42:47.264Z,4.83
2018-10-01T18:45:22.661Z,6.05
2018-10-01T18:47:58.821Z,2.77
2018-10-01T18:50:34.292Z,2.08
2018-10-01T18:53:10.227Z,2.50
2018-10-01T18:55:45.925Z,2.30
2018-10-01T18:58:21.413Z,3.42
2018-10-01T19:00:56.918Z,3.30
2018-10-01T19:03:32.617Z,3.00
2018-10-01T19:06:08.108Z,5.17
2018-10-01T19:08:43.629Z,3.40
2018-10-01T19:11:19.118Z,3.80
2018-10-01T19:13:54.709Z,5.20
2018-10-01T19:16:30.425Z,5.83
2018-10-01T19:19:05.942Z,4.37
2018-10-01T19:21:41.597Z,2.85
2018-10-01T19:24:17.389Z,5.50
2018-10-01T19:26:52.834Z,4.20
2018-10-01T19:29:28.369Z,2.70
2018-10-01T19:32:03.928Z,2.60
2018-10-01T19:34:40.034Z,2.87
2018-10-01T19:37:15.385Z,3.42
2018-10-01T19:39:50.966Z,3.25
2018-10-01T19:42:26.508Z,5.33
2018-10-01T19:45:02.241Z,3.47
2018-10-01T19:47:37.647Z,5.37
2018-10-01T19:50:13.497Z,3.20
2018-10-01T19:52:49.103Z,3.35
2018-10-01T19:55:24.732Z,2.72
2018-10-01T19:58:00.159Z,3.47
2018-10-01T20:00:36.107Z,3.80
2018-10-01T20:03:11.564Z,2.80
2018-10-01T20:05:46.994Z,3.42
2018-10-01T20:08:22.369Z,4.65
2018-10-01T20:10:58.115Z,4.55
2018-10-01T20:13:33.704Z,3.10
2018-10-01T20:16:09.158Z,3.55
2018-10-01T20:18:44.631Z,5.22
2018-10-01T20:21:20.178Z,3.60
2018-10-01T20:23:55.681Z,3.25
2018-10-01T20:26:31.544Z,3.00
2018-10-01T20:29:07.944Z,2.40
2018-10-01T20:31:43.253Z,2.70
2018-10-01T20:34:18.590Z,2.52
2018-10-01T20:36:54.065Z,3.05
2018-10-01T20:39:29.831Z,3.65
2018-10-01T20:42:05.539Z,2.10
2018-10-01T20:44:41.081Z,2.92
2018-10-01T20:47:17.716Z,2.42
2018-10-01T20:49:53.245Z,2.98
2018-10-01T20:52:28.807Z,2.92
2018-10-01T20:55:04.113Z,3.50
2018-10-01T20:57:39.733Z,3.98
2018-10-01T21:00:15.149Z,2.37
2018-10-01T21:02:50.937Z,3.30
2018-10-01T21:05:26.348Z,2.77
2018-10-01T21:08:02.510Z,4.65
2018-10-01T21:10:38.156Z,4.58
2018-10-01T21:13:13.749Z,2.35
2018-10-01T21:15:49.326Z,2.85
2018-10-01T21:18:24.854Z,3.87
2018-10-01T21:21:00.333Z,2.85
2018-10-01T21:23:36.181Z,2.40
2018-10-01T21:26:11.595Z,2.35
2018-10-01T21:28:47.313Z,3.70
2018-10-01T21:31:22.932Z,2.27
2018-10-01T21:33:58.835Z,2.77
2018-10-01T21:36:34.565Z,3.60
2018-10-01T21:39:16.432Z,3.45
2018-10-01T21:41:51.848Z,2.95
2018-10-01T21:44:27.692Z,2.10
2018-10-01T21:47:02.973Z,3.50
2018-10-01T21:49:38.759Z,2.37
2018-10-01T21:52:14.241Z,2.83
2018-10-01T21:54:49.728Z,2.87
2018-10-01T21:57:25.139Z,4.60
2018-10-01T22:00:00.793Z,3.00
2018-10-01T22:02:36.613Z,3.12
2018-10-01T22:05:12.079Z,2.83
2018-10-01T22:07:47.548Z,7.78
2018-10-01T22:10:23.078Z,6.75
2018-10-01T22:12:58.401Z,2.75
2018-10-01T22:15:39.314Z,2.65
2018-10-01T22:18:17.480Z,3.60
2018-10-01T22:20:53.136Z,3.55
2018-10-01T22:23:28.641Z,2.70
2018-10-01T22:26:04.262Z,5.92
2018-10-01T22:28:40.184Z,3.42
2018-10-01T22:31:15.823Z,2.92
2018-10-01T22:33:51.249Z,2.42
2018-10-01T22:36:26.757Z,2.80
2018-10-01T22:39:02.288Z,2.45
2018-10-01T22:41:38.273Z,3.35
2018-10-01T22:44:13.828Z,2.60
2018-10-01T22:46:49.379Z,4.00
2018-10-01T22:49:24.827Z,2.40
2018-10-01T22:52:00.359Z,2.95
2018-10-01T22:54:35.864Z,3.92
2018-10-01T22:57:11.356Z,2.85
2018-10-01T22:59:46.909Z,5.22
2018-10-01T23:02:22.667Z,2.58
2018-10-01T23:04:58.117Z,3.40
2018-10-01T23:07:34.050Z,3.10
2018-10-01T23:10:09.721Z,2.50
2018-10-01T23:12:45.461Z,3.05
2018-10-01T23:15:20.918Z,3.25
2018-10-01T23:17:56.578Z,2.25
2018-10-01T23:20:32.033Z,3.25
2018-10-01T23:23:07.423Z,4.12
2018-10-01T23:25:42.994Z,2.83
2018-10-01T23:28:18.724Z,2.60
2018-10-01T23:30:54.184Z,1.60
2018-10-01T23:33:29.889Z,2.27
2018-10-01T23:36:05.382Z,2.58
2018-10-01T23:38:41.237Z,1.80
2018-10-01T23:41:16.579Z,2.08
2018-10-01T23:43:52.329Z,2.90
2018-10-01T23:46:27.961Z,2.20
2018-10-01T23:49:03.639Z,2.47
2018-10-01T23:51:39.162Z,2.98
2018-10-01T23:54:15.188Z,2.00
2018-10-01T23:56:50.883Z,1.90
2018-10-01T23:59:26.569Z,2.77
